createdAt,value
2019-03-08T00:01:51.744Z,8.97
2019-03-08T00:04:21.745Z,8.43
2019-03-08T00:06:51.622Z,8.87
2019-03-08T00:09:21.626Z,9.43
2019-03-08T00:11:51.516Z,8.90
2019-03-08T00:14:21.376Z,8.27
2019-03-08T00:16:51.307Z,9.00
2019-03-08T00:19:21.207Z,9.27
2019-03-08T00:21:51.145Z,9.77
2019-03-08T00:24:21.091Z,9.23
2019-03-08T00:26:51.207Z,8.40
2019-03-08T00:29:21.530Z,9.70
2019-03-08T00:31:51.759Z,9.63
2019-03-08T00:34:21.665Z,8.67
2019-03-08T00:36:51.596Z,7.70
2019-03-08T00:39:21.622Z,8.23
2019-03-08T00:41:51.603Z,8.23
2019-03-08T00:44:21.646Z,9.17
2019-03-08T00:46:51.597Z,8.77
2019-03-08T00:49:21.589Z,8.63
2019-03-08T00:51:51.575Z,9.33
2019-03-08T00:54:21.573Z,8.73
2019-03-08T00:56:51.507Z,9.70
2019-03-08T00:59:21.423Z,9.00
2019-03-08T01:01:51.443Z,9.13
2019-03-08T01:04:21.438Z,9.27
2019-03-08T01:06:51.453Z,9.47
2019-03-08T01:09:21.793Z,9.93
2019-03-08T01:11:51.851Z,10.30
2019-03-08T01:14:21.881Z,10.13
2019-03-08T01:16:51.917Z,10.00
2019-03-08T01:19:21.944Z,9.47
2019-03-08T01:21:51.938Z,9.90
2019-03-08T01:24:22.022Z,8.67
2019-03-08T01:26:51.993Z,9.60
2019-03-08T01:29:22.004Z,9.47
2019-03-08T01:31:53.479Z,9.63
2019-03-08T01:34:23.724Z,8.80
2019-03-08T01:36:53.787Z,9.33
2019-03-08T01:39:24.103Z,9.47
2019-03-08T01:41:54.180Z,10.60
2019-03-08T01:44:24.146Z,8.73
2019-03-08T01:46:54.171Z,9.83
2019-03-08T01:49:24.121Z,9.20
2019-03-08T01:51:54.176Z,9.23
2019-03-08T01:54:24.176Z,9.93
2019-03-08T01:56:54.093Z,9.13
2019-03-08T01:59:24.165Z,9.00
2019-03-08T02:01:54.347Z,9.97
2019-03-08T02:04:24.316Z,9.87
2019-03-08T02:06:54.392Z,8.87
2019-03-08T02:09:24.436Z,9.03
2019-03-08T02:11:54.329Z,9.10
2019-03-08T02:14:24.631Z,9.50
2019-03-08T02:16:54.656Z,9.97
2019-03-08T02:19:24.666Z,9.87
2019-03-08T02:21:54.633Z,9.47
2019-03-08T02:24:24.558Z,8.93
2019-03-08T02:26:54.522Z,9.30
2019-03-08T02:29:24.426Z,8.10
2019-03-08T02:31:54.343Z,9.50
2019-03-08T02:34:25.274Z,9.03
2019-03-08T02:36:55.268Z,9.30
2019-03-08T02:39:25.194Z,9.70
2019-03-08T02:41:55.406Z,10.03
2019-03-08T02:44:25.459Z,9.87
2019-03-08T02:46:55.522Z,9.67
2019-03-08T02:49:25.427Z,9.53
2019-03-08T02:51:55.338Z,9.53
2019-03-08T02:54:25.516Z,9.23
2019-03-08T02:56:55.424Z,9.40
2019-03-08T02:59:25.354Z,9.87
2019-03-08T03:01:55.236Z,8.80
2019-03-08T03:04:25.153Z,9.90
2019-03-08T03:06:55.115Z,9.53
2019-03-08T03:09:25.043Z,10.93
2019-03-08T03:11:54.922Z,10.47
2019-03-08T03:14:24.794Z,10.70
2019-03-08T03:16:54.752Z,10.33
2019-03-08T03:19:24.637Z,9.70
2019-03-08T03:21:54.539Z,11.20
2019-03-08T03:24:24.471Z,12.07
2019-03-08T03:26:54.356Z,13.30
2019-03-08T03:29:24.310Z,13.03
2019-03-08T03:31:54.204Z,12.27
2019-03-08T03:34:24.420Z,13.40
2019-03-08T03:36:54.454Z,13.73
2019-03-08T03:39:24.386Z,13.10
2019-03-08T03:41:54.297Z,14.07
2019-03-08T03:44:24.138Z,14.03
2019-03-08T03:46:54.043Z,12.20
2019-03-08T03:49:24.025Z,13.37
2019-03-08T03:51:53.937Z,13.03
2019-03-08T03:54:23.854Z,13.23
2019-03-08T03:56:53.776Z,13.17
2019-03-08T03:59:23.658Z,13.33
2019-03-08T04:01:53.549Z,13.50
2019-03-08T04:04:23.471Z,12.87
2019-03-08T04:06:53.356Z,12.47
2019-03-08T04:09:23.298Z,11.70
2019-03-08T04:11:53.213Z,11.40
2019-03-08T04:14:23.431Z,11.13
2019-03-08T04:16:53.418Z,12.77
2019-03-08T04:19:24.554Z,11.60
2019-03-08T04:21:54.447Z,11.90
2019-03-08T04:24:24.345Z,12.23
2019-03-08T04:26:54.612Z,13.03
2019-03-08T04:29:24.630Z,13.13
2019-03-08T04:31:54.588Z,11.83
2019-03-08T04:34:24.506Z,12.67
2019-03-08T04:36:54.382Z,12.33
2019-03-08T04:39:26.277Z,12.37
2019-03-08T04:41:56.254Z,12.77
2019-03-08T04:44:26.298Z,12.03
2019-03-08T04:46:56.277Z,13.10
2019-03-08T04:49:26.242Z,14.37
2019-03-08T04:51:56.221Z,13.73
2019-03-08T04:54:26.532Z,13.13
2019-03-08T04:56:56.468Z,13.33
2019-03-08T04:59:26.454Z,13.60
2019-03-08T05:01:56.819Z,12.43
2019-03-08T05:04:26.946Z,14.57
2019-03-08T05:06:57.296Z,13.17
2019-03-08T05:09:28.282Z,14.73
2019-03-08T05:11:58.307Z,14.47
2019-03-08T05:14:28.282Z,14.17
2019-03-08T05:16:58.167Z,14.80
2019-03-08T05:19:28.267Z,15.00
2019-03-08T05:21:58.227Z,14.07
2019-03-08T05:24:28.270Z,14.43
2019-03-08T05:26:58.399Z,12.73
2019-03-08T05:29:28.410Z,13.60
2019-03-08T05:31:58.393Z,13.20
2019-03-08T05:34:28.618Z,12.30
2019-03-08T05:36:58.659Z,15.33
2019-03-08T05:39:28.671Z,13.93
2019-03-08T05:41:58.655Z,14.53
2019-03-08T05:44:29.715Z,16.93
2019-03-08T05:47:00.169Z,15.10
2019-03-08T05:49:30.162Z,15.83
2019-03-08T05:52:00.164Z,17.70
2019-03-08T05:54:30.250Z,15.50
2019-03-08T05:57:00.367Z,14.93
2019-03-08T05:59:30.420Z,15.50
2019-03-08T06:02:00.462Z,15.80
2019-03-08T06:04:30.446Z,12.43
2019-03-08T06:07:00.349Z,13.90
2019-03-08T06:09:30.219Z,13.30
2019-03-08T06:12:00.257Z,14.87
2019-03-08T06:14:30.535Z,14.87
2019-03-08T06:17:00.470Z,13.80
2019-03-08T06:19:30.492Z,15.10
2019-03-08T06:22:00.490Z,14.43
2019-03-08T06:24:30.383Z,14.47
2019-03-08T06:27:00.330Z,15.93
2019-03-08T06:29:30.452Z,14.90
2019-03-08T06:32:00.394Z,15.80
2019-03-08T06:34:30.367Z,15.57
2019-03-08T06:37:00.265Z,17.20
2019-03-08T06:39:31.265Z,17.00
2019-03-08T06:42:01.599Z,19.97
2019-03-08T06:44:32.437Z,16.13
2019-03-08T06:47:02.488Z,18.17
2019-03-08T06:49:32.450Z,16.43
2019-03-08T06:52:02.340Z,18.97
2019-03-08T06:54:32.246Z,17.23
2019-03-08T06:57:02.233Z,15.67
2019-03-08T06:59:33.716Z,17.77
2019-03-08T07:02:03.695Z,17.70
2019-03-08T07:04:33.638Z,17.63
2019-03-08T07:07:03.566Z,17.37
2019-03-08T07:09:33.929Z,18.90
2019-03-08T07:12:03.803Z,15.80
2019-03-08T07:14:33.793Z,18.33
2019-03-08T07:17:03.730Z,15.83
2019-03-08T07:19:40.782Z,16.53
2019-03-08T07:22:08.164Z,16.30
2019-03-08T07:24:39.737Z,17.83
2019-03-08T07:27:23.438Z,17.93
2019-03-08T07:30:10.076Z,16.90
2019-03-08T07:32:47.709Z,15.57
2019-03-08T07:35:19.407Z,15.70
2019-03-08T07:37:52.047Z,17.17
2019-03-08T07:40:23.635Z,16.93
2019-03-08T07:43:04.319Z,16.47
2019-03-08T07:45:41.602Z,18.33
2019-03-08T07:48:22.232Z,16.93
2019-03-08T07:50:56.639Z,18.03
2019-03-08T07:53:43.113Z,16.60
2019-03-08T07:56:17.290Z,16.57
2019-03-08T07:58:48.886Z,16.60
2019-03-08T08:01:20.418Z,16.03
2019-03-08T08:03:57.511Z,15.20
2019-03-08T08:06:32.231Z,17.13
2019-03-08T08:09:04.092Z,18.30
2019-03-08T08:11:37.364Z,17.43
2019-03-08T08:14:24.372Z,19.00
2019-03-08T08:17:08.153Z,18.20
2019-03-08T08:19:39.684Z,16.10
2019-03-08T08:22:12.280Z,16.00
2019-03-08T08:24:43.892Z,15.90
2019-03-08T08:27:31.293Z,17.00
2019-03-08T08:30:05.763Z,15.07
2019-03-08T08:32:43.179Z,14.30
2019-03-08T08:35:31.691Z,14.53
2019-03-08T08:38:12.639Z,15.30
2019-03-08T08:40:46.610Z,15.93
2019-03-08T08:43:33.619Z,14.90
2019-03-08T08:46:07.884Z,13.57
2019-03-08T08:48:39.357Z,12.30
2019-03-08T08:51:19.845Z,14.17
2019-03-08T08:54:00.368Z,13.73
2019-03-08T08:56:32.983Z,12.40
2019-03-08T08:59:07.024Z,12.87
2019-03-08T09:01:38.519Z,13.77
2019-03-08T09:04:09.982Z,11.93
2019-03-08T09:06:50.636Z,12.27
2019-03-08T09:09:28.333Z,11.63
2019-03-08T09:12:15.138Z,11.93
2019-03-08T09:14:55.670Z,11.70
2019-03-08T09:17:27.166Z,11.20
2019-03-08T09:20:08.112Z,11.30
2019-03-08T09:22:42.384Z,11.37
2019-03-08T09:25:14.073Z,11.20
2019-03-08T09:27:51.871Z,10.63
2019-03-08T09:30:23.474Z,10.10
2019-03-08T09:33:04.007Z,10.77
2019-03-08T09:35:36.723Z,9.03
2019-03-08T09:38:08.612Z,9.23
2019-03-08T09:40:49.094Z,8.17
2019-03-08T09:43:23.392Z,9.63
2019-03-08T09:45:54.907Z,10.03
2019-03-08T09:48:26.510Z,10.73
2019-03-08T09:50:58.076Z,9.30
2019-03-08T09:53:29.722Z,10.30
2019-03-08T09:56:07.661Z,10.77
2019-03-08T09:58:48.255Z,10.67
2019-03-08T10:01:19.839Z,10.10
2019-03-08T10:03:57.210Z,10.53
2019-03-08T10:06:40.979Z,10.07
2019-03-08T10:09:15.372Z,8.77
2019-03-08T10:11:46.881Z,9.37
2019-03-08T10:14:25.306Z,9.60
2019-03-08T10:16:56.950Z,9.17
2019-03-08T10:19:28.498Z,8.77
2019-03-08T10:22:06.271Z,9.37
2019-03-08T10:24:55.889Z,8.80
2019-03-08T10:27:38.194Z,9.13
2019-03-08T10:30:08.806Z,8.97
2019-03-08T10:32:46.487Z,8.37
2019-03-08T10:35:33.654Z,9.70
2019-03-08T10:38:22.870Z,9.63
2019-03-08T10:40:53.512Z,9.20
2019-03-08T10:43:28.079Z,8.90
2019-03-08T10:46:02.419Z,8.77
2019-03-08T10:48:34.853Z,7.97
2019-03-08T10:51:06.413Z,8.33
2019-03-08T10:53:47.120Z,8.10
2019-03-08T10:56:37.132Z,8.80
2019-03-08T10:59:11.457Z,7.50
2019-03-08T11:01:55.250Z,7.30
2019-03-08T11:04:32.235Z,7.77
2019-03-08T11:07:19.011Z,7.93
2019-03-08T11:10:02.620Z,8.33
2019-03-08T11:12:35.143Z,7.83
2019-03-08T11:15:24.514Z,7.77
2019-03-08T11:18:12.437Z,7.23
2019-03-08T11:20:49.453Z,6.50
2019-03-08T11:23:37.125Z,6.57
2019-03-08T11:26:14.781Z,6.73
2019-03-08T11:28:55.270Z,7.00
2019-03-08T11:31:34.843Z,5.87
2019-03-08T11:34:06.159Z,6.27
2019-03-08T11:36:40.445Z,5.90
2019-03-08T11:39:35.888Z,6.93
2019-03-08T11:42:10.398Z,6.30
2019-03-08T11:45:00.164Z,5.80
2019-03-08T11:47:37.809Z,6.10
2019-03-08T11:50:20.707Z,5.67
2019-03-08T11:52:58.083Z,4.87
2019-03-08T11:55:44.988Z,4.93
2019-03-08T11:58:34.850Z,4.87
2019-03-08T12:01:07.743Z,4.37
2019-03-08T12:03:39.298Z,4.73
2019-03-08T12:06:10.955Z,4.80
2019-03-08T12:08:57.662Z,4.67
2019-03-08T12:11:38.589Z,5.40
2019-03-08T12:14:19.374Z,4.27
2019-03-08T12:16:56.794Z,5.00
2019-03-08T12:19:43.401Z,4.37
2019-03-08T12:22:14.942Z,4.23
2019-03-08T12:24:52.504Z,4.67
2019-03-08T12:27:35.714Z,4.00
2019-03-08T12:30:25.874Z,3.63
2019-03-08T12:33:00.474Z,3.47
2019-03-08T12:35:31.978Z,3.37
2019-03-08T12:38:09.208Z,3.47
2019-03-08T12:40:57.066Z,3.30
2019-03-08T12:43:37.395Z,3.10
2019-03-08T12:46:30.437Z,3.00
2019-03-08T12:49:07.761Z,2.80
2019-03-08T12:51:51.623Z,2.77
2019-03-08T12:54:28.983Z,2.77
2019-03-08T12:57:15.590Z,2.83
2019-03-08T12:59:50.039Z,2.60
2019-03-08T13:02:21.764Z,2.70
2019-03-08T13:04:59.349Z,2.80
2019-03-08T13:07:30.906Z,2.90
2019-03-08T13:10:11.505Z,2.53
2019-03-08T13:12:41.408Z,2.13
2019-03-08T13:15:13.880Z,2.47
2019-03-08T13:17:43.838Z,2.50
2019-03-08T13:20:17.132Z,2.40
2019-03-08T13:22:47.046Z,2.40
2019-03-08T13:25:17.142Z,1.70
2019-03-08T13:27:47.130Z,2.10
2019-03-08T13:30:24.462Z,2.13
2019-03-08T13:32:54.393Z,2.27
2019-03-08T13:35:24.387Z,2.53
2019-03-08T13:37:54.794Z,1.90
2019-03-08T13:40:24.951Z,2.20
2019-03-08T13:42:54.883Z,2.73
2019-03-08T13:45:24.881Z,2.60
2019-03-08T13:47:54.737Z,2.03
2019-03-08T13:50:24.732Z,1.90
2019-03-08T13:52:54.602Z,2.40
2019-03-08T13:55:24.502Z,1.80
2019-03-08T13:57:55.454Z,2.00
2019-03-08T14:00:25.398Z,2.20
2019-03-08T14:02:55.350Z,1.90
2019-03-08T14:05:25.274Z,7.83
2019-03-08T14:07:55.288Z,2.40
2019-03-08T14:10:25.183Z,2.37
2019-03-08T14:12:55.149Z,2.10
2019-03-08T14:15:25.035Z,2.03
2019-03-08T14:17:55.240Z,2.00
2019-03-08T14:20:27.502Z,1.83
2019-03-08T14:22:57.435Z,1.80
2019-03-08T14:25:27.294Z,1.60
2019-03-08T14:27:57.197Z,1.67
2019-03-08T14:30:32.219Z,2.33
2019-03-08T14:33:01.665Z,2.70
2019-03-08T14:35:32.051Z,2.00
2019-03-08T14:38:02.071Z,2.00
2019-03-08T14:40:39.509Z,2.30
2019-03-08T14:43:13.141Z,2.27
2019-03-08T14:45:46.732Z,2.77
2019-03-08T14:48:16.731Z,2.60
2019-03-08T14:50:46.820Z,3.23
2019-03-08T14:53:17.209Z,3.57
2019-03-08T14:55:47.102Z,3.27
2019-03-08T14:58:18.045Z,3.40
2019-03-08T15:00:47.958Z,3.70
2019-03-08T15:03:20.282Z,3.90
2019-03-08T15:05:51.211Z,3.23
2019-03-08T15:08:22.203Z,3.63
2019-03-08T15:10:52.105Z,3.03
2019-03-08T15:13:24.148Z,3.23
2019-03-08T15:15:53.571Z,3.43
2019-03-08T15:18:25.979Z,3.03
2019-03-08T15:20:58.571Z,3.40
2019-03-08T15:23:27.979Z,3.93
2019-03-08T15:25:58.234Z,3.53
2019-03-08T15:28:28.595Z,3.87
2019-03-08T15:30:58.613Z,4.63
2019-03-08T15:33:28.631Z,4.70
2019-03-08T15:35:58.779Z,4.57
2019-03-08T15:38:30.563Z,3.83
2019-03-08T15:41:00.608Z,4.23
2019-03-08T15:43:31.700Z,4.47
2019-03-08T15:46:01.806Z,4.03
2019-03-08T15:48:31.785Z,4.57
2019-03-08T15:51:01.794Z,4.30
2019-03-08T15:53:31.878Z,4.73
2019-03-08T15:56:01.997Z,5.50
2019-03-08T15:58:32.071Z,5.30
2019-03-08T16:01:02.155Z,4.97
2019-03-08T16:03:33.935Z,4.97
2019-03-08T16:06:06.364Z,4.57
2019-03-08T16:08:35.851Z,4.67
2019-03-08T16:11:07.030Z,3.87
2019-03-08T16:13:38.017Z,4.50
2019-03-08T16:16:09.394Z,4.73
2019-03-08T16:18:40.207Z,4.50
2019-03-08T16:21:13.184Z,4.47
2019-03-08T16:23:43.493Z,5.27
2019-03-08T16:26:13.548Z,4.87
2019-03-08T16:28:43.515Z,4.77
2019-03-08T16:31:17.981Z,4.87
2019-03-08T16:33:52.480Z,5.13
2019-03-08T16:36:36.163Z,5.10
2019-03-08T16:39:10.896Z,5.13
2019-03-08T16:41:48.035Z,5.43
2019-03-08T16:44:28.519Z,4.67
2019-03-08T16:47:16.063Z,6.77
2019-03-08T16:49:48.036Z,5.67
2019-03-08T16:52:26.144Z,5.80
2019-03-08T16:54:57.457Z,6.10
2019-03-08T16:57:47.275Z,5.20
2019-03-08T17:00:18.999Z,4.83
2019-03-08T17:03:05.575Z,5.53
2019-03-08T17:05:42.826Z,4.57
2019-03-08T17:08:26.512Z,5.53
2019-03-08T17:11:01.043Z,5.93
2019-03-08T17:13:48.844Z,5.17
2019-03-08T17:16:37.108Z,5.83
2019-03-08T17:19:12.160Z,4.93
2019-03-08T17:21:42.958Z,4.57
2019-03-08T17:24:17.285Z,4.70
2019-03-08T17:27:00.800Z,6.70
2019-03-08T17:29:38.632Z,4.60
2019-03-08T17:32:26.795Z,5.63
2019-03-08T17:35:07.571Z,5.30
2019-03-08T17:37:43.363Z,5.40
2019-03-08T17:40:18.002Z,5.90
2019-03-08T17:43:08.206Z,5.20
2019-03-08T17:45:43.154Z,5.40
2019-03-08T17:48:32.595Z,5.57
2019-03-08T17:51:10.024Z,6.70
2019-03-08T17:53:41.506Z,5.23
2019-03-08T17:56:12.985Z,5.97
2019-03-08T17:58:50.621Z,6.17
2019-03-08T18:01:28.667Z,5.17
2019-03-08T18:04:16.688Z,5.23
2019-03-08T18:07:04.544Z,5.60
2019-03-08T18:09:52.259Z,5.53
2019-03-08T18:12:40.203Z,5.13
2019-03-08T18:15:12.180Z,4.67
2019-03-08T18:17:59.969Z,4.63
2019-03-08T18:20:37.647Z,4.73
2019-03-08T18:23:27.643Z,4.10
2019-03-08T18:26:05.140Z,2.87
2019-03-08T18:28:42.703Z,1.80
2019-03-08T18:31:31.827Z,1.93
2019-03-08T18:34:10.580Z,1.50
2019-03-08T18:36:57.181Z,1.83
2019-03-08T18:39:31.374Z,1.07
2019-03-08T18:42:02.800Z,1.30
2019-03-08T18:44:38.173Z,0.80
2019-03-08T18:47:09.621Z,0.90
2019-03-08T18:49:47.051Z,0.80
2019-03-08T18:52:34.941Z,0.83
2019-03-08T18:55:08.039Z,0.83
2019-03-08T18:57:56.084Z,1.20
2019-03-08T19:00:28.125Z,1.10
2019-03-08T19:03:15.884Z,0.87
2019-03-08T19:05:50.144Z,1.17
2019-03-08T19:08:37.964Z,0.87
2019-03-08T19:11:21.393Z,1.00
2019-03-08T19:14:09.204Z,1.27
2019-03-08T19:16:40.682Z,1.97
2019-03-08T19:19:12.079Z,1.47
2019-03-08T19:21:55.627Z,1.70
2019-03-08T19:24:27.100Z,1.47
2019-03-08T19:27:10.956Z,1.60
2019-03-08T19:29:42.700Z,1.63
2019-03-08T19:32:17.242Z,1.27
2019-03-08T19:34:58.089Z,1.63
2019-03-08T19:37:35.941Z,1.90
2019-03-08T19:40:10.899Z,1.77
2019-03-08T19:42:45.410Z,1.50
2019-03-08T19:45:23.770Z,1.87
2019-03-08T19:48:11.819Z,1.90
2019-03-08T19:50:45.298Z,1.50
2019-03-08T19:53:32.819Z,1.40
2019-03-08T19:56:04.222Z,2.20
2019-03-08T19:58:36.873Z,1.77
2019-03-08T20:01:24.543Z,2.07
2019-03-08T20:04:12.396Z,1.27
2019-03-08T20:06:44.089Z,2.20
2019-03-08T20:09:24.780Z,1.57
2019-03-08T20:11:59.001Z,1.90
2019-03-08T20:14:42.962Z,1.90
2019-03-08T20:17:17.661Z,1.70
2019-03-08T20:19:51.700Z,2.07
2019-03-08T20:22:23.224Z,2.00
2019-03-08T20:24:54.726Z,2.50
2019-03-08T20:27:29.463Z,1.83
2019-03-08T20:30:04.081Z,1.50
2019-03-08T20:32:38.641Z,1.63
2019-03-08T20:35:26.842Z,2.17
2019-03-08T20:38:16.505Z,1.97
2019-03-08T20:40:50.921Z,1.90
2019-03-08T20:43:22.460Z,2.20
2019-03-08T20:45:53.957Z,1.53
2019-03-08T20:48:25.040Z,2.37
2019-03-08T20:50:55.090Z,2.00
2019-03-08T20:53:24.981Z,2.00
2019-03-08T20:55:54.836Z,2.17
2019-03-08T20:58:24.702Z,1.60
2019-03-08T21:00:54.586Z,1.80
2019-03-08T21:03:24.469Z,2.20
2019-03-08T21:05:54.371Z,1.27
2019-03-08T21:08:24.280Z,1.77
2019-03-08T21:10:54.332Z,1.27
2019-03-08T21:13:24.280Z,1.40
2019-03-08T21:15:54.139Z,1.50
2019-03-08T21:18:24.080Z,0.97
2019-03-08T21:20:53.952Z,1.20
2019-03-08T21:23:23.819Z,1.13
2019-03-08T21:25:53.687Z,1.70
2019-03-08T21:28:24.787Z,1.10
2019-03-08T21:30:54.878Z,1.17
2019-03-08T21:33:24.777Z,1.30
2019-03-08T21:35:54.676Z,1.30
2019-03-08T21:38:25.805Z,1.40
2019-03-08T21:40:56.163Z,1.30
2019-03-08T21:43:26.324Z,1.77
2019-03-08T21:45:56.242Z,0.90
2019-03-08T21:48:26.140Z,1.03
2019-03-08T21:50:56.111Z,1.17
2019-03-08T21:53:26.027Z,1.03
2019-03-08T21:55:56.353Z,1.17
2019-03-08T21:58:26.263Z,1.57
2019-03-08T22:00:56.377Z,1.40
2019-03-08T22:03:27.330Z,1.10
2019-03-08T22:05:57.231Z,1.10
2019-03-08T22:08:27.231Z,1.30
2019-03-08T22:11:08.013Z,1.50
2019-03-08T22:13:37.872Z,1.73
2019-03-08T22:16:07.749Z,1.13
2019-03-08T22:18:37.828Z,1.13
2019-03-08T22:21:07.722Z,0.90
2019-03-08T22:23:37.674Z,1.00
2019-03-08T22:26:07.565Z,1.37
2019-03-08T22:28:37.459Z,0.97
2019-03-08T22:31:07.636Z,0.80
2019-03-08T22:33:37.472Z,1.43
2019-03-08T22:36:07.369Z,0.80
2019-03-08T22:38:37.247Z,0.87
2019-03-08T22:41:07.210Z,0.80
2019-03-08T22:43:37.262Z,1.17
2019-03-08T22:46:07.166Z,1.07
2019-03-08T22:48:37.043Z,0.90
2019-03-08T22:51:06.891Z,1.13
2019-03-08T22:53:36.828Z,1.10
2019-03-08T22:56:06.727Z,0.90
2019-03-08T22:58:36.675Z,0.77
2019-03-08T23:01:09.273Z,0.60
2019-03-08T23:03:39.818Z,0.87
2019-03-08T23:06:09.868Z,0.70
2019-03-08T23:08:40.777Z,1.00
2019-03-08T23:11:10.838Z,0.80
2019-03-08T23:13:40.913Z,0.70
2019-03-08T23:16:10.857Z,0.83
2019-03-08T23:18:42.456Z,0.83
2019-03-08T23:21:12.484Z,1.23
2019-03-08T23:23:42.499Z,0.70
2019-03-08T23:26:12.507Z,0.73
2019-03-08T23:28:50.004Z,1.17
2019-03-08T23:31:24.243Z,0.70
2019-03-08T23:33:54.161Z,0.77
2019-03-08T23:36:24.083Z,0.70
2019-03-08T23:38:54.093Z,0.63
2019-03-08T23:41:24.166Z,0.70
2019-03-08T23:43:54.094Z,0.50
2019-03-08T23:46:24.058Z,0.57
2019-03-08T23:48:55.005Z,0.40
2019-03-08T23:51:24.946Z,0.77
2019-03-08T23:53:54.933Z,0.60
2019-03-08T23:56:24.828Z,0.70
2019-03-08T23:58:54.897Z,0.70
